createdAt,value
2017-05-28T00:01:55.144Z,9.00
2017-05-28T00:04:22.094Z,8.68
2017-05-28T00:06:49.067Z,8.56
2017-05-28T00:09:16.043Z,8.42
2017-05-28T00:11:43.016Z,8.80
2017-05-28T00:14:09.964Z,8.12
2017-05-28T00:16:37.286Z,8.42
2017-05-28T00:19:04.237Z,8.30
2017-05-28T00:21:31.214Z,8.06
2017-05-28T00:23:58.162Z,8.60
2017-05-28T00:26:25.139Z,7.80
2017-05-28T00:28:52.089Z,8.34
2017-05-28T00:31:19.038Z,9.06
2017-05-28T00:33:46.004Z,8.00
2017-05-28T00:36:12.959Z,8.48
2017-05-28T00:38:39.940Z,8.64
2017-05-28T00:41:06.900Z,9.82
2017-05-28T00:43:33.870Z,7.84
2017-05-28T00:46:00.819Z,9.60
2017-05-28T00:48:27.806Z,10.02
2017-05-28T00:50:54.757Z,9.04
2017-05-28T00:53:21.706Z,6.82
2017-05-28T00:55:48.682Z,8.36
2017-05-28T00:58:15.626Z,8.22
2017-05-28T01:00:42.594Z,7.72
2017-05-28T01:03:09.538Z,8.28
2017-05-28T01:05:36.506Z,8.02
2017-05-28T01:08:03.466Z,8.22
2017-05-28T01:10:30.426Z,9.54
2017-05-28T01:12:57.369Z,7.68
2017-05-28T01:15:24.332Z,7.90
2017-05-28T01:17:51.284Z,8.22
2017-05-28T01:20:18.234Z,10.94
2017-05-28T01:22:52.118Z,8.10
2017-05-28T01:25:19.062Z,8.28
2017-05-28T01:27:46.055Z,8.28
2017-05-28T01:30:13.007Z,7.54
2017-05-28T01:32:39.980Z,10.20
2017-05-28T01:35:13.997Z,8.54
2017-05-28T01:37:40.965Z,10.64
2017-05-28T01:40:07.940Z,8.22
2017-05-28T01:42:34.936Z,9.22
2017-05-28T01:45:01.903Z,8.44
2017-05-28T01:47:28.919Z,7.96
2017-05-28T01:49:55.865Z,8.82
2017-05-28T01:52:22.841Z,8.90
2017-05-28T01:54:49.801Z,8.34
2017-05-28T01:57:16.748Z,8.30
2017-05-28T01:59:43.722Z,8.70
2017-05-28T02:02:10.669Z,8.44
2017-05-28T02:04:37.640Z,8.74
2017-05-28T02:07:04.580Z,7.96
2017-05-28T02:09:31.564Z,7.44
2017-05-28T02:11:58.519Z,9.46
2017-05-28T02:14:25.526Z,10.56
2017-05-28T02:16:52.522Z,8.44
2017-05-28T02:19:19.544Z,11.36
2017-05-28T02:21:46.517Z,8.32
2017-05-28T02:24:13.525Z,8.46
2017-05-28T02:26:40.504Z,8.82
2017-05-28T02:29:07.462Z,8.10
2017-05-28T02:31:34.450Z,7.86
2017-05-28T02:34:01.481Z,8.16
2017-05-28T02:36:28.481Z,7.80
2017-05-28T02:41:32.058Z,8.16
2017-05-28T02:43:59.129Z,7.88
2017-05-28T02:46:26.206Z,8.68
2017-05-28T02:48:53.305Z,8.62
2017-05-28T02:51:20.623Z,9.72
2017-05-28T02:53:47.756Z,9.32
2017-05-28T02:56:14.744Z,8.34
2017-05-28T02:58:41.718Z,9.64
2017-05-28T03:01:09.190Z,10.38
2017-05-28T03:03:36.162Z,8.70
2017-05-28T03:06:03.125Z,8.08
2017-05-28T03:08:30.119Z,8.56
2017-05-28T03:10:57.144Z,8.48
2017-05-28T03:13:24.118Z,8.16
2017-05-28T03:15:51.058Z,9.64
2017-05-28T03:18:18.028Z,8.48
2017-05-28T03:20:44.978Z,8.56
2017-05-28T03:23:11.922Z,9.86
2017-05-28T03:25:38.883Z,8.82
2017-05-28T03:28:05.817Z,8.48
2017-05-28T03:30:32.782Z,10.56
2017-05-28T03:32:59.754Z,8.46
2017-05-28T03:35:26.725Z,7.82
2017-05-28T03:37:53.674Z,9.36
2017-05-28T03:40:20.638Z,8.46
2017-05-28T03:42:47.591Z,9.10
2017-05-28T03:45:14.550Z,8.06
2017-05-28T03:47:41.512Z,8.50
2017-05-28T03:50:08.660Z,9.36
2017-05-28T03:52:35.629Z,7.84
2017-05-28T03:55:02.566Z,8.56
2017-05-28T03:57:29.631Z,7.98
2017-05-28T03:59:56.577Z,9.32
2017-05-28T04:02:23.544Z,8.00
2017-05-28T04:04:50.484Z,11.24
2017-05-28T04:07:17.469Z,8.44
2017-05-28T04:09:44.445Z,8.80
2017-05-28T04:12:11.400Z,9.10
2017-05-28T04:14:38.385Z,8.44
2017-05-28T04:17:05.370Z,7.76
2017-05-28T04:19:32.332Z,8.00
2017-05-28T04:21:59.281Z,8.70
2017-05-28T04:24:26.253Z,9.54
2017-05-28T04:26:53.208Z,6.88
2017-05-28T04:29:20.187Z,8.12
2017-05-28T04:31:47.180Z,8.48
2017-05-28T04:34:14.191Z,7.82
2017-05-28T04:36:41.137Z,8.24
2017-05-28T04:39:08.130Z,9.36
2017-05-28T04:41:35.071Z,9.10
2017-05-28T04:44:02.034Z,8.26
2017-05-28T04:46:29.002Z,7.82
2017-05-28T04:48:55.956Z,9.38
2017-05-28T04:51:22.937Z,8.38
2017-05-28T04:53:49.898Z,7.52
2017-05-28T04:56:16.870Z,8.30
2017-05-28T04:58:43.946Z,8.56
2017-05-28T05:01:10.926Z,8.30
2017-05-28T05:03:37.874Z,10.42
2017-05-28T05:06:04.845Z,7.50
2017-05-28T05:08:31.820Z,7.54
2017-05-28T05:10:58.790Z,8.66
2017-05-28T05:13:25.725Z,7.16
2017-05-28T05:15:52.715Z,8.58
2017-05-28T05:18:19.658Z,6.86
2017-05-28T05:20:46.601Z,7.74
2017-05-28T05:23:13.566Z,7.14
2017-05-28T05:25:40.920Z,9.24
2017-05-28T05:28:07.905Z,7.12
2017-05-28T05:30:34.869Z,7.52
2017-05-28T05:33:01.878Z,7.10
2017-05-28T05:35:28.830Z,9.26
2017-05-28T05:37:55.830Z,7.08
2017-05-28T05:40:22.774Z,6.56
2017-05-28T05:42:49.757Z,6.70
2017-05-28T05:45:16.714Z,10.50
2017-05-28T05:47:43.684Z,7.30
2017-05-28T05:50:10.629Z,6.16
2017-05-28T05:52:37.575Z,6.38
2017-05-28T05:55:04.527Z,6.16
2017-05-28T05:57:31.478Z,6.16
2017-05-28T05:59:58.449Z,5.80
2017-05-28T06:02:25.394Z,5.60
2017-05-28T06:04:52.366Z,6.44
2017-05-28T06:07:19.297Z,7.10
2017-05-28T06:09:46.262Z,5.38
2017-05-28T06:12:13.259Z,5.84
2017-05-28T06:14:47.054Z,6.56
2017-05-28T06:17:14.029Z,6.16
2017-05-28T06:19:40.975Z,6.10
2017-05-28T06:22:07.945Z,5.30
2017-05-28T06:24:34.891Z,5.50
2017-05-28T06:27:01.857Z,6.54
2017-05-28T06:29:28.815Z,5.40
2017-05-28T06:31:55.786Z,7.92
2017-05-28T06:34:22.733Z,5.78
2017-05-28T06:36:49.687Z,6.38
2017-05-28T06:39:16.662Z,5.68
2017-05-28T06:41:43.602Z,8.82
2017-05-28T06:44:10.561Z,5.48
2017-05-28T06:46:37.511Z,5.96
2017-05-28T06:49:04.490Z,5.50
2017-05-28T06:51:31.435Z,5.20
2017-05-28T06:53:58.421Z,5.22
2017-05-28T06:56:25.370Z,5.70
2017-05-28T06:58:52.314Z,5.80
2017-05-28T07:01:19.285Z,5.64
2017-05-28T07:03:46.233Z,5.06
2017-05-28T07:06:13.193Z,5.32
2017-05-28T07:08:40.185Z,5.50
2017-05-28T07:11:07.172Z,5.18
2017-05-28T07:13:34.130Z,5.30
2017-05-28T07:16:01.122Z,6.98
2017-05-28T07:18:28.081Z,4.92
2017-05-28T07:20:55.038Z,5.52
2017-05-28T07:23:22.044Z,5.02
2017-05-28T07:25:48.993Z,4.80
2017-05-28T07:28:15.966Z,6.46
2017-05-28T07:30:42.917Z,5.16
2017-05-28T07:33:09.905Z,5.00
2017-05-28T07:35:36.857Z,5.08
2017-05-28T07:38:03.828Z,5.24
2017-05-28T07:40:30.783Z,5.42
2017-05-28T07:42:57.753Z,4.84
2017-05-28T07:45:24.702Z,5.84
2017-05-28T07:47:51.685Z,5.06
2017-05-28T07:50:18.628Z,4.82
2017-05-28T07:52:51.706Z,4.14
2017-05-28T07:55:18.704Z,5.06
2017-05-28T07:57:45.933Z,4.42
2017-05-28T08:00:12.928Z,5.02
2017-05-28T08:02:39.886Z,4.66
2017-05-28T08:05:06.873Z,5.94
2017-05-28T08:07:33.822Z,5.24
2017-05-28T08:10:01.181Z,4.96
2017-05-28T08:12:28.274Z,4.90
2017-05-28T08:14:55.922Z,4.40
2017-05-28T08:17:23.027Z,4.74
2017-05-28T08:19:50.510Z,4.20
2017-05-28T08:22:18.955Z,4.72
2017-05-28T08:24:46.833Z,4.86
2017-05-28T08:27:14.994Z,5.04
2017-05-28T08:29:42.107Z,5.84
2017-05-28T08:32:09.644Z,5.00
2017-05-28T08:34:37.200Z,5.58
2017-05-28T08:37:04.543Z,4.88
2017-05-28T08:39:31.578Z,4.70
2017-05-28T08:41:58.992Z,4.94
2017-05-28T08:44:26.503Z,4.82
2017-05-28T08:46:54.131Z,4.16
2017-05-28T08:49:21.206Z,4.78
2017-05-28T08:51:48.489Z,4.86
2017-05-28T08:54:15.455Z,4.72
2017-05-28T08:56:42.425Z,5.04
2017-05-28T08:59:09.411Z,4.12
2017-05-28T09:01:36.373Z,5.00
2017-05-28T09:04:03.420Z,4.10
2017-05-28T09:06:30.412Z,4.30
2017-05-28T09:08:57.588Z,5.58
2017-05-28T09:11:24.537Z,10.66
2017-05-28T09:13:51.520Z,4.04
2017-05-28T09:16:18.474Z,4.10
2017-05-28T09:18:45.847Z,4.42
2017-05-28T09:21:12.825Z,4.62
2017-05-28T09:23:39.803Z,4.18
2017-05-28T09:26:06.765Z,4.02
2017-05-28T09:28:33.764Z,4.40
2017-05-28T09:31:00.749Z,4.56
2017-05-28T09:33:27.754Z,4.48
2017-05-28T09:35:54.720Z,4.46
2017-05-28T09:38:21.668Z,4.52
2017-05-28T09:40:48.647Z,4.54
2017-05-28T09:43:15.606Z,3.90
2017-05-28T09:45:42.590Z,4.42
2017-05-28T09:48:09.542Z,5.56
2017-05-28T09:50:36.517Z,4.10
2017-05-28T09:53:03.494Z,8.76
2017-05-28T09:55:30.468Z,5.02
2017-05-28T09:57:57.417Z,4.44
2017-05-28T10:00:24.398Z,5.22
2017-05-28T10:02:51.344Z,4.84
2017-05-28T10:05:18.337Z,6.46
2017-05-28T10:07:45.298Z,4.68
2017-05-28T10:10:12.245Z,4.68
2017-05-28T10:12:39.216Z,5.10
2017-05-28T10:15:06.186Z,5.68
2017-05-28T10:17:33.219Z,4.36
2017-05-28T10:20:00.166Z,4.58
2017-05-28T10:22:27.158Z,4.94
2017-05-28T10:24:54.105Z,4.50
2017-05-28T10:27:21.095Z,4.80
2017-05-28T10:29:48.069Z,4.26
2017-05-28T10:32:15.073Z,4.62
2017-05-28T10:34:42.022Z,4.18
2017-05-28T10:37:09.404Z,4.70
2017-05-28T10:39:36.379Z,4.34
2017-05-28T10:42:03.356Z,4.70
2017-05-28T10:44:29.597Z,5.58
2017-05-28T10:46:56.837Z,4.26
2017-05-28T10:49:23.815Z,4.14
2017-05-28T10:51:50.773Z,5.12
2017-05-28T10:54:17.750Z,4.46
2017-05-28T10:56:44.714Z,6.58
2017-05-28T10:59:11.681Z,4.24
2017-05-28T11:01:38.640Z,3.70
2017-05-28T11:04:05.614Z,3.70
2017-05-28T11:06:32.570Z,3.92
2017-05-28T11:08:59.564Z,3.78
2017-05-28T11:11:26.554Z,3.74
2017-05-28T11:13:53.562Z,3.80
2017-05-28T11:16:20.516Z,3.94
2017-05-28T11:18:47.473Z,4.08
2017-05-28T11:21:15.263Z,4.08
2017-05-28T11:23:42.231Z,3.88
2017-05-28T11:26:09.207Z,4.34
2017-05-28T11:28:36.171Z,3.86
2017-05-28T11:31:03.145Z,4.06
2017-05-28T11:33:30.105Z,5.08
2017-05-28T11:35:57.078Z,4.40
2017-05-28T11:38:24.037Z,4.42
2017-05-28T11:40:51.014Z,4.04
2017-05-28T11:43:17.971Z,4.36
2017-05-28T11:45:44.965Z,4.30
2017-05-28T11:48:11.921Z,4.06
2017-05-28T11:50:38.875Z,6.82
2017-05-28T11:53:05.850Z,4.18
2017-05-28T11:55:32.805Z,5.04
2017-05-28T11:57:59.775Z,4.66
2017-05-28T12:00:26.731Z,4.22
2017-05-28T12:02:53.717Z,4.90
2017-05-28T12:05:20.681Z,5.14
2017-05-28T12:07:47.674Z,4.74
2017-05-28T12:10:14.621Z,4.90
2017-05-28T12:12:41.589Z,7.06
2017-05-28T12:15:08.532Z,5.20
2017-05-28T12:17:35.495Z,5.46
2017-05-28T12:20:02.460Z,5.44
2017-05-28T12:22:29.458Z,5.02
2017-05-28T12:24:56.405Z,4.86
2017-05-28T12:27:23.357Z,5.56
2017-05-28T12:29:50.329Z,4.56
2017-05-28T12:32:17.281Z,4.94
2017-05-28T12:34:44.249Z,5.52
2017-05-28T12:37:11.202Z,5.76
2017-05-28T12:39:38.176Z,5.34
2017-05-28T12:42:05.131Z,5.76
2017-05-28T12:44:32.113Z,5.04
2017-05-28T12:46:59.058Z,5.00
2017-05-28T12:49:26.024Z,4.80
2017-05-28T12:51:52.968Z,4.96
2017-05-28T12:54:19.934Z,4.62
2017-05-28T12:56:46.878Z,4.22
2017-05-28T12:59:13.861Z,4.44
2017-05-28T13:01:40.804Z,4.90
2017-05-28T13:04:07.763Z,4.82
2017-05-28T13:06:34.735Z,5.14
2017-05-28T13:09:01.708Z,4.08
2017-05-28T13:11:28.673Z,4.92
2017-05-28T13:13:55.631Z,10.30
2017-05-28T13:16:22.602Z,4.64
2017-05-28T13:18:49.557Z,4.90
2017-05-28T13:21:16.530Z,4.68
2017-05-28T13:23:43.476Z,4.78
2017-05-28T13:26:10.441Z,5.32
2017-05-28T13:28:37.395Z,4.84
2017-05-28T13:31:04.369Z,4.94
2017-05-28T13:33:31.324Z,4.70
2017-05-28T13:35:58.278Z,4.92
2017-05-28T13:38:25.243Z,5.50
2017-05-28T13:40:52.186Z,5.02
2017-05-28T13:43:19.161Z,4.72
2017-05-28T13:45:46.112Z,4.62
2017-05-28T13:48:13.090Z,4.40
2017-05-28T13:50:40.045Z,4.90
2017-05-28T13:53:07.025Z,5.18
2017-05-28T13:55:33.982Z,4.84
2017-05-28T13:58:00.957Z,4.72
2017-05-28T14:00:27.918Z,4.60
2017-05-28T14:02:54.866Z,3.44
2017-05-28T14:05:21.838Z,3.66
2017-05-28T14:07:48.822Z,3.74
2017-05-28T14:10:15.796Z,3.78
2017-05-28T14:12:42.806Z,4.20
2017-05-28T14:15:09.782Z,4.90
2017-05-28T14:17:36.741Z,4.74
2017-05-28T14:20:03.717Z,4.34
2017-05-28T14:22:30.666Z,4.68
2017-05-28T14:24:57.641Z,4.84
2017-05-28T14:27:24.593Z,4.70
2017-05-28T14:29:51.589Z,5.18
2017-05-28T14:32:18.546Z,5.04
2017-05-28T14:34:45.504Z,3.82
2017-05-28T14:37:12.489Z,3.86
2017-05-28T14:39:39.440Z,3.90
2017-05-28T14:42:06.414Z,3.52
2017-05-28T14:44:33.368Z,3.74
2017-05-28T14:47:00.345Z,4.26
2017-05-28T14:49:27.296Z,4.38
2017-05-28T14:51:54.276Z,4.14
2017-05-28T14:54:21.229Z,4.70
2017-05-28T14:56:48.724Z,4.28
2017-05-28T14:59:15.745Z,4.52
2017-05-28T15:01:42.923Z,3.86
2017-05-28T15:04:10.237Z,4.58
2017-05-28T15:06:37.669Z,4.26
2017-05-28T15:09:05.098Z,3.72
2017-05-28T15:11:32.133Z,5.14
2017-05-28T15:13:59.099Z,4.64
2017-05-28T15:16:26.053Z,5.24
2017-05-28T15:18:53.689Z,4.40
2017-05-28T15:21:20.978Z,4.52
2017-05-28T15:23:48.827Z,4.90
2017-05-28T15:26:16.123Z,4.68
2017-05-28T15:28:43.138Z,5.48
2017-05-28T15:31:10.102Z,4.46
2017-05-28T15:33:37.205Z,4.74
2017-05-28T15:36:04.425Z,4.76
2017-05-28T15:38:31.606Z,4.38
2017-05-28T15:40:59.185Z,4.48
2017-05-28T15:43:26.512Z,4.26
2017-05-28T15:45:53.462Z,4.04
2017-05-28T15:48:20.410Z,4.52
2017-05-28T15:50:47.392Z,5.60
2017-05-28T15:53:14.536Z,3.96
2017-05-28T15:55:41.514Z,4.20
2017-05-28T15:58:08.467Z,4.80
2017-05-28T16:00:35.440Z,6.66
2017-05-28T16:03:02.417Z,4.50
2017-05-28T16:05:29.395Z,4.68
2017-05-28T16:07:56.357Z,4.42
2017-05-28T16:10:23.355Z,4.60
2017-05-28T16:12:50.296Z,4.54
2017-05-28T16:15:17.259Z,4.72
2017-05-28T16:17:44.202Z,4.58
2017-05-28T16:20:11.180Z,6.08
2017-05-28T16:22:38.231Z,4.76
2017-05-28T16:25:05.384Z,4.74
2017-05-28T16:27:32.354Z,4.68
2017-05-28T16:29:59.321Z,5.44
2017-05-28T16:32:26.290Z,4.96
2017-05-28T16:34:53.233Z,4.36
2017-05-28T16:37:20.214Z,4.42
2017-05-28T16:39:47.170Z,5.20
2017-05-28T16:42:14.130Z,3.92
2017-05-28T16:44:41.104Z,4.64
2017-05-28T16:47:08.063Z,5.98
2017-05-28T16:49:35.055Z,5.42
2017-05-28T16:52:01.998Z,5.40
2017-05-28T16:54:28.967Z,5.14
2017-05-28T16:56:55.906Z,4.38
2017-05-28T16:59:22.967Z,5.50
2017-05-28T17:01:49.925Z,6.14
2017-05-28T17:04:16.905Z,4.86
2017-05-28T17:06:43.860Z,5.62
2017-05-28T17:09:10.877Z,5.24
2017-05-28T17:11:37.821Z,5.52
2017-05-28T17:14:04.774Z,4.86
2017-05-28T17:16:31.740Z,6.42
2017-05-28T17:18:59.848Z,6.06
2017-05-28T17:21:26.826Z,5.44
2017-05-28T17:23:53.788Z,8.80
2017-05-28T17:26:20.757Z,5.52
2017-05-28T17:28:47.700Z,5.22
2017-05-28T17:31:14.664Z,5.10
2017-05-28T17:33:41.610Z,4.98
2017-05-28T17:36:08.570Z,4.84
2017-05-28T17:38:35.529Z,4.40
2017-05-28T17:41:02.505Z,4.84
2017-05-28T17:43:29.461Z,4.58
2017-05-28T17:45:56.446Z,5.20
2017-05-28T17:48:23.394Z,5.86
2017-05-28T17:50:50.346Z,5.52
2017-05-28T17:53:17.324Z,6.12
2017-05-28T17:55:44.273Z,6.22
2017-05-28T17:58:11.348Z,5.86
2017-05-28T18:00:38.304Z,5.72
2017-05-28T18:03:05.278Z,5.80
2017-05-28T18:05:32.224Z,4.94
2017-05-28T18:07:59.213Z,4.60
2017-05-28T18:10:26.160Z,5.94
2017-05-28T18:12:53.125Z,6.32
2017-05-28T18:15:20.079Z,7.44
2017-05-28T18:17:47.069Z,6.46
2017-05-28T18:20:14.013Z,6.92
2017-05-28T18:22:40.970Z,6.10
2017-05-28T18:25:07.934Z,6.02
2017-05-28T18:27:34.881Z,5.58
2017-05-28T18:30:01.943Z,5.68
2017-05-28T18:32:28.887Z,6.08
2017-05-28T18:34:55.857Z,6.18
2017-05-28T18:37:22.808Z,5.64
2017-05-28T18:39:49.777Z,6.04
2017-05-28T18:42:16.734Z,6.08
2017-05-28T18:44:43.705Z,5.68
2017-05-28T18:47:10.651Z,6.60
2017-05-28T18:49:37.594Z,5.04
2017-05-28T18:52:04.561Z,6.28
2017-05-28T18:54:31.515Z,4.76
2017-05-28T18:56:58.476Z,5.58
2017-05-28T18:59:25.533Z,5.60
2017-05-28T19:01:52.502Z,6.10
2017-05-28T19:04:19.457Z,5.40
2017-05-28T19:06:46.420Z,7.76
2017-05-28T19:09:13.390Z,8.16
2017-05-28T19:11:40.362Z,7.12
2017-05-28T19:14:07.317Z,6.80
2017-05-28T19:16:34.305Z,6.00
2017-05-28T19:19:01.563Z,6.52
2017-05-28T19:21:28.534Z,6.30
2017-05-28T19:23:55.563Z,7.20
2017-05-28T19:26:22.520Z,7.74
2017-05-28T19:28:49.498Z,8.38
2017-05-28T19:31:16.449Z,9.24
2017-05-28T19:33:43.437Z,6.66
2017-05-28T19:36:10.385Z,5.92
2017-05-28T19:38:37.374Z,6.26
2017-05-28T19:41:04.321Z,6.40
2017-05-28T19:43:31.302Z,7.50
2017-05-28T19:45:58.257Z,6.82
2017-05-28T19:48:25.257Z,7.74
2017-05-28T19:50:52.222Z,6.88
2017-05-28T19:53:19.207Z,7.64
2017-05-28T19:55:46.226Z,7.52
2017-05-28T19:58:13.151Z,7.48
2017-05-28T20:00:47.078Z,8.12
2017-05-28T20:03:14.070Z,8.02
2017-05-28T20:05:41.097Z,8.18
2017-05-28T20:08:08.063Z,8.98
2017-05-28T20:10:35.310Z,6.38
2017-05-28T20:13:02.428Z,7.22
2017-05-28T20:15:29.417Z,8.78
2017-05-28T20:17:56.376Z,7.92
2017-05-28T20:20:23.366Z,7.68
2017-05-28T20:22:50.350Z,7.20
2017-05-28T20:25:17.406Z,10.70
2017-05-28T20:27:44.548Z,7.48
2017-05-28T20:30:11.507Z,7.08
2017-05-28T20:32:38.823Z,7.02
2017-05-28T20:35:05.773Z,7.02
2017-05-28T20:37:32.748Z,8.38
2017-05-28T20:39:59.702Z,10.20
2017-05-28T20:42:26.748Z,6.82
2017-05-28T20:44:54.292Z,7.32
2017-05-28T20:47:21.273Z,7.66
2017-05-28T20:49:48.230Z,9.86
2017-05-28T20:52:15.237Z,7.14
2017-05-28T20:54:42.194Z,7.68
2017-05-28T20:57:09.237Z,7.30
2017-05-28T20:59:36.807Z,8.40
2017-05-28T21:02:03.770Z,8.92
2017-05-28T21:04:30.762Z,9.24
2017-05-28T21:06:58.063Z,9.62
2017-05-28T21:09:26.531Z,8.36
2017-05-28T21:11:53.523Z,9.28
2017-05-28T21:14:20.513Z,8.78
2017-05-28T21:16:48.048Z,9.04
2017-05-28T21:21:49.021Z,9.42
2017-05-28T21:24:16.021Z,9.54
2017-05-28T21:26:42.981Z,9.28
2017-05-28T21:29:09.937Z,9.00
2017-05-28T21:31:37.342Z,9.26
2017-05-28T21:34:04.290Z,7.48
2017-05-28T21:36:31.267Z,8.36
2017-05-28T21:38:58.218Z,8.26
2017-05-28T21:41:25.192Z,8.72
2017-05-28T21:43:52.140Z,8.14
2017-05-28T21:46:19.142Z,8.58
2017-05-28T21:48:46.094Z,8.82
2017-05-28T21:51:13.072Z,8.62
2017-05-28T21:53:40.024Z,8.60
2017-05-28T21:56:06.996Z,8.78
2017-05-28T21:58:33.950Z,8.62
2017-05-28T22:01:00.906Z,10.04
2017-05-28T22:03:27.884Z,8.50
2017-05-28T22:05:54.846Z,9.66
2017-05-28T22:08:21.850Z,8.50
2017-05-28T22:10:48.806Z,9.08
2017-05-28T22:13:15.784Z,11.84
2017-05-28T22:15:42.730Z,9.20
2017-05-28T22:18:09.710Z,9.54
2017-05-28T22:20:43.678Z,9.52
2017-05-28T22:23:10.665Z,9.30
2017-05-28T22:25:37.620Z,9.22
2017-05-28T22:28:04.572Z,9.16
2017-05-28T22:30:31.545Z,8.40
2017-05-28T22:32:58.804Z,8.82
2017-05-28T22:35:25.816Z,9.22
2017-05-28T22:37:52.773Z,10.76
2017-05-28T22:40:19.749Z,10.70
2017-05-28T22:42:46.706Z,10.04
2017-05-28T22:45:13.715Z,9.36
2017-05-28T22:47:40.682Z,10.28
2017-05-28T22:50:07.634Z,9.58
2017-05-28T22:52:34.612Z,9.04
2017-05-28T22:55:01.567Z,9.60
2017-05-28T22:57:28.549Z,9.64
2017-05-28T22:59:55.505Z,10.22
2017-05-28T23:02:22.548Z,9.02
2017-05-28T23:04:49.595Z,10.20
2017-05-28T23:07:16.569Z,10.18
2017-05-28T23:09:43.538Z,10.78
2017-05-28T23:12:10.517Z,9.16
2017-05-28T23:14:37.466Z,9.58
2017-05-28T23:17:04.451Z,9.54
2017-05-28T23:19:31.430Z,9.26
2017-05-28T23:21:58.385Z,9.38
2017-05-28T23:24:25.360Z,9.88
2017-05-28T23:26:52.320Z,10.46
2017-05-28T23:29:19.289Z,9.88
2017-05-28T23:31:46.248Z,10.30
2017-05-28T23:34:13.234Z,9.68
2017-05-28T23:36:40.187Z,9.98
2017-05-28T23:39:07.588Z,9.58
2017-05-28T23:41:34.538Z,9.50
2017-05-28T23:44:01.520Z,9.90
2017-05-28T23:46:28.477Z,8.98
2017-05-28T23:48:55.448Z,9.96
2017-05-28T23:51:22.384Z,9.64
2017-05-28T23:53:49.330Z,10.38
2017-05-28T23:56:16.644Z,10.78
2017-05-28T23:58:43.593Z,12.24
